Terminal Aerodrome Forecast
Issued by NWS Sterling, VA

Current Version | Previous Version | Graphics & Text | Print | Product List | Glossary On
Versions: 1 2 3 4 5 6 7 8 9 10 11 12 13 14 15 16 17 18 19 20 21 22 23 24
235
FTUS41 KLWX 211121
TAFIAD
TAF
KIAD 211121Z 2112/2218 14004KT P6SM SCT080 BKN120 BKN250
     FM211600 19006KT P6SM VCTS BKN050CB
     FM212200 19004KT P6SM BKN150
     FM220700 VRB03KT P6SM SCT050
     FM221300 21007KT P6SM SCT100=

USA.gov is the U.S. government's official web portal to all federal, state and local government web resources and services.